sensor_id;sensor_type;location;lat;lon;timestamp;pressure;altitude;pressure_sealevel;temperature;humidity
46836;BME280;32573;51.290;6.926;2023-02-26T00:01:11;100218.94;;;1.00;100.00
46836;BME280;32573;51.290;6.926;2023-02-26T00:03:41;100230.94;;;0.99;100.00
46836;BME280;32573;51.290;6.926;2023-02-26T00:06:09;100235.09;;;0.97;100.00
46836;BME280;32573;51.290;6.926;2023-02-26T00:08:38;100232.31;;;0.94;100.00
46836;BME280;32573;51.290;6.926;2023-02-26T00:11:07;100237.47;;;0.94;100.00
46836;BME280;32573;51.290;6.926;2023-02-26T00:13:37;100243.50;;;0.95;100.00
46836;BME280;32573;51.290;6.926;2023-02-26T00:16:17;100240.84;;;0.93;100.00
46836;BME280;32573;51.290;6.926;2023-02-26T00:18:51;100239.03;;;0.92;100.00
46836;BME280;32573;51.290;6.926;2023-02-26T00:21:22;100245.09;;;0.93;100.00
46836;BME280;32573;51.290;6.926;2023-02-26T00:23:51;100254.50;;;0.92;100.00
46836;BME280;32573;51.290;6.926;2023-02-26T00:26:20;100255.28;;;0.91;100.00
46836;BME280;32573;51.290;6.926;2023-02-26T00:28:50;100258.75;;;0.92;100.00
46836;BME280;32573;51.290;6.926;2023-02-26T00:31:21;100260.44;;;0.91;100.00
46836;BME280;32573;51.290;6.926;2023-02-26T00:33:52;100269.94;;;0.92;100.00
46836;BME280;32573;51.290;6.926;2023-02-26T00:36:23;100259.56;;;0.91;100.00
46836;BME280;32573;51.290;6.926;2023-02-26T00:39:03;100275.78;;;0.90;100.00
46836;BME280;32573;51.290;6.926;2023-02-26T00:41:34;100278.28;;;0.88;100.00
46836;BME280;32573;51.290;6.926;2023-02-26T00:44:05;100282.56;;;0.88;100.00
46836;BME280;32573;51.290;6.926;2023-02-26T00:46:41;100281.63;;;0.87;100.00
46836;BME280;32573;51.290;6.926;2023-02-26T00:49:22;100278.09;;;0.85;100.00
46836;BME280;32573;51.290;6.926;2023-02-26T00:51:55;100285.81;;;0.85;100.00
46836;BME280;32573;51.290;6.926;2023-02-26T00:54:28;100282.31;;;0.84;100.00
46836;BME280;32573;51.290;6.926;2023-02-26T00:56:57;100286.59;;;0.84;100.00
46836;BME280;32573;51.290;6.926;2023-02-26T00:59:27;100281.44;;;0.84;100.00
46836;BME280;32573;51.290;6.926;2023-02-26T01:01:57;100271.25;;;0.85;100.00
46836;BME280;32573;51.290;6.926;2023-02-26T01:04:26;100254.28;;;0.89;100.00
46836;BME280;32573;51.290;6.926;2023-02-26T01:06:56;100263.03;;;0.91;100.00
46836;BME280;32573;51.290;6.926;2023-02-26T01:09:26;100271.75;;;0.93;100.00
46836;BME280;32573;51.290;6.926;2023-02-26T01:11:57;100272.84;;;0.97;100.00
46836;BME280;32573;51.290;6.926;2023-02-26T01:14:28;100285.84;;;0.98;100.00
46836;BME280;32573;51.290;6.926;2023-02-26T01:17:03;100291.09;;;1.00;100.00
46836;BME280;32573;51.290;6.926;2023-02-26T01:19:40;100298.16;;;1.02;100.00
46836;BME280;32573;51.290;6.926;2023-02-26T01:22:14;100300.81;;;1.04;100.00
46836;BME280;32573;51.290;6.926;2023-02-26T01:24:45;100302.50;;;1.03;100.00
46836;BME280;32573;51.290;6.926;2023-02-26T01:27:15;100299.25;;;1.06;100.00
46836;BME280;32573;51.290;6.926;2023-02-26T01:29:44;100294.09;;;1.06;100.00
46836;BME280;32573;51.290;6.926;2023-02-26T01:32:18;100295.97;;;1.08;100.00
46836;BME280;32573;51.290;6.926;2023-02-26T01:34:54;100294.22;;;1.07;100.00
46836;BME280;32573;51.290;6.926;2023-02-26T01:37:30;100292.50;;;1.08;100.00
46836;BME280;32573;51.290;6.926;2023-02-26T01:40:26;100295.19;;;1.10;100.00
46836;BME280;32573;51.290;6.926;2023-02-26T01:43:01;100302.03;;;1.09;100.00
46836;BME280;32573;51.290;6.926;2023-02-26T01:45:34;100293.59;;;1.12;100.00
46836;BME280;32573;51.290;6.926;2023-02-26T01:48:06;100303.91;;;1.12;100.00
46836;BME280;32573;51.290;6.926;2023-02-26T01:50:39;100307.28;;;1.11;100.00
46836;BME280;32573;51.290;6.926;2023-02-26T01:53:19;100308.88;;;1.08;100.00
46836;BME280;32573;51.290;6.926;2023-02-26T01:55:51;100308.88;;;1.08;100.00
46836;BME280;32573;51.290;6.926;2023-02-26T01:58:22;100321.75;;;1.08;100.00
46836;BME280;32573;51.290;6.926;2023-02-26T02:00:52;100318.16;;;1.06;100.00
46836;BME280;32573;51.290;6.926;2023-02-26T02:03:23;100315.59;;;1.06;100.00
46836;BME280;32573;51.290;6.926;2023-02-26T02:05:55;100318.97;;;1.05;100.00
46836;BME280;32573;51.290;6.926;2023-02-26T02:08:25;100320.53;;;1.03;100.00
46836;BME280;32573;51.290;6.926;2023-02-26T02:10:54;100318.78;;;1.02;100.00
46836;BME280;32573;51.290;6.926;2023-02-26T02:13:33;100323.69;;;0.99;100.00
46836;BME280;32573;51.290;6.926;2023-02-26T02:16:11;100322.81;;;0.99;100.00
46836;BME280;32573;51.290;6.926;2023-02-26T02:18:51;100331.22;;;0.96;100.00
46836;BME280;32573;51.290;6.926;2023-02-26T02:21:44;100333.59;;;0.93;100.00
46836;BME280;32573;51.290;6.926;2023-02-26T02:24:25;100334.38;;;0.92;100.00
46836;BME280;32573;51.290;6.926;2023-02-26T02:27:03;100330.00;;;0.91;100.00
46836;BME280;32573;51.290;6.926;2023-02-26T02:30:02;100336.72;;;0.89;100.00
46836;BME280;32573;51.290;6.926;2023-02-26T02:32:37;100342.69;;;0.88;100.00
46836;BME280;32573;51.290;6.926;2023-02-26T02:35:12;100335.66;;;0.85;100.00
46836;BME280;32573;51.290;6.926;2023-02-26T02:37:45;100343.25;;;0.84;100.00
46836;BME280;32573;51.290;6.926;2023-02-26T02:40:19;100356.94;;;0.83;100.00
46836;BME280;32573;51.290;6.926;2023-02-26T02:42:54;100353.34;;;0.81;100.00
46836;BME280;32573;51.290;6.926;2023-02-26T02:45:28;100360.97;;;0.79;100.00
46836;BME280;32573;51.290;6.926;2023-02-26T02:48:00;100372.84;;;0.77;100.00
46836;BME280;32573;51.290;6.926;2023-02-26T02:50:31;100369.38;;;0.77;100.00
46836;BME280;32573;51.290;6.926;2023-02-26T02:53:07;100367.47;;;0.74;100.00
46836;BME280;32573;51.290;6.926;2023-02-26T02:55:43;100377.78;;;0.74;100.00
46836;BME280;32573;51.290;6.926;2023-02-26T02:58:16;100372.53;;;0.73;100.00
46836;BME280;32573;51.290;6.926;2023-02-26T03:00:48;100371.63;;;0.72;100.00
46836;BME280;32573;51.290;6.926;2023-02-26T03:03:25;100374.88;;;0.70;100.00
46836;BME280;32573;51.290;6.926;2023-02-26T03:05:55;100367.06;;;0.68;100.00
46836;BME280;32573;51.290;6.926;2023-02-26T03:08:27;100372.00;;;0.65;100.00
46836;BME280;32573;51.290;6.926;2023-02-26T03:10:57;100372.69;;;0.62;100.00
46836;BME280;32573;51.290;6.926;2023-02-26T03:13:26;100379.41;;;0.60;100.00
46836;BME280;32573;51.290;6.926;2023-02-26T03:16:14;100378.28;;;0.57;100.00
46836;BME280;32573;51.290;6.926;2023-02-26T03:18:52;100386.78;;;0.56;100.00
46836;BME280;32573;51.290;6.926;2023-02-26T03:21:42;100383.22;;;0.54;100.00
46836;BME280;32573;51.290;6.926;2023-02-26T03:24:24;100388.25;;;0.52;100.00
46836;BME280;32573;51.290;6.926;2023-02-26T03:26:57;100393.28;;;0.51;100.00
46836;BME280;32573;51.290;6.926;2023-02-26T03:29:34;100395.75;;;0.49;100.00
46836;BME280;32573;51.290;6.926;2023-02-26T03:32:07;100412.75;;;0.47;100.00
46836;BME280;32573;51.290;6.926;2023-02-26T03:34:44;100413.69;;;0.48;100.00
46836;BME280;32573;51.290;6.926;2023-02-26T03:37:16;100422.28;;;0.48;100.00
46836;BME280;32573;51.290;6.926;2023-02-26T03:39:49;100420.47;;;0.47;100.00
46836;BME280;32573;51.290;6.926;2023-02-26T03:42:21;100430.78;;;0.47;100.00
46836;BME280;32573;51.290;6.926;2023-02-26T03:44:58;100427.22;;;0.45;100.00
46836;BME280;32573;51.290;6.926;2023-02-26T03:47:29;100422.09;;;0.45;100.00
46836;BME280;32573;51.290;6.926;2023-02-26T03:50:04;100429.81;;;0.45;100.00
46836;BME280;32573;51.290;6.926;2023-02-26T03:52:46;100428.00;;;0.44;100.00
46836;BME280;32573;51.290;6.926;2023-02-26T03:55:30;100428.00;;;0.44;100.00
46836;BME280;32573;51.290;6.926;2023-02-26T03:58:17;100430.47;;;0.42;100.00
46836;BME280;32573;51.290;6.926;2023-02-26T04:01:00;100437.28;;;0.42;100.00
46836;BME280;32573;51.290;6.926;2023-02-26T04:03:34;100432.94;;;0.41;100.00
46836;BME280;32573;51.290;6.926;2023-02-26T04:06:06;100440.31;;;0.36;100.00
46836;BME280;32573;51.290;6.926;2023-02-26T04:08:35;100441.13;;;0.35;100.00
46836;BME280;32573;51.290;6.926;2023-02-26T04:11:06;100446.94;;;0.33;100.00
46836;BME280;32573;51.290;6.926;2023-02-26T04:13:36;100449.25;;;0.30;100.00
46836;BME280;32573;51.290;6.926;2023-02-26T04:16:05;100450.84;;;0.28;100.00
46836;BME280;32573;51.290;6.926;2023-02-26T04:18:34;100450.59;;;0.25;100.00
46836;BME280;32573;51.290;6.926;2023-02-26T04:21:06;100455.66;;;0.23;100.00
46836;BME280;32573;51.290;6.926;2023-02-26T04:23:34;100467.38;;;0.19;100.00
46836;BME280;32573;51.290;6.926;2023-02-26T04:26:03;100466.38;;;0.17;100.00
46836;BME280;32573;51.290;6.926;2023-02-26T04:28:32;100467.84;;;0.14;100.00
46836;BME280;32573;51.290;6.926;2023-02-26T04:31:04;100468.50;;;0.11;100.00
46836;BME280;32573;51.290;6.926;2023-02-26T04:33:32;100470.84;;;0.08;100.00
46836;BME280;32573;51.290;6.926;2023-02-26T04:36:01;100474.09;;;0.06;100.00
46836;BME280;32573;51.290;6.926;2023-02-26T04:38:32;100483.25;;;0.02;100.00
46836;BME280;32573;51.290;6.926;2023-02-26T04:41:01;100483.03;;;-0.01;100.00
46836;BME280;32573;51.290;6.926;2023-02-26T04:43:29;100481.91;;;-0.05;100.00
46836;BME280;32573;51.290;6.926;2023-02-26T04:46:18;100485.25;;;-0.06;100.00
46836;BME280;32573;51.290;6.926;2023-02-26T04:48:46;100490.31;;;-0.07;100.00
46836;BME280;32573;51.290;6.926;2023-02-26T04:51:15;100497.88;;;-0.09;100.00
46836;BME280;32573;51.290;6.926;2023-02-26T04:53:45;100501.34;;;-0.08;100.00
46836;BME280;32573;51.290;6.926;2023-02-26T04:56:14;100508.06;;;-0.10;100.00
46836;BME280;32573;51.290;6.926;2023-02-26T04:58:44;100507.06;;;-0.12;100.00
46836;BME280;32573;51.290;6.926;2023-02-26T05:01:17;100511.19;;;-0.14;100.00
46836;BME280;32573;51.290;6.926;2023-02-26T05:03:47;100514.53;;;-0.15;100.00
46836;BME280;32573;51.290;6.926;2023-02-26T05:06:16;100512.75;;;-0.16;100.00
46836;BME280;32573;51.290;6.926;2023-02-26T05:08:45;100512.63;;;-0.18;100.00
46836;BME280;32573;51.290;6.926;2023-02-26T05:11:14;100513.41;;;-0.19;100.00
46836;BME280;32573;51.290;6.926;2023-02-26T05:13:42;100522.00;;;-0.18;100.00
46836;BME280;32573;51.290;6.926;2023-02-26T05:16:11;100515.84;;;-0.20;100.00
46836;BME280;32573;51.290;6.926;2023-02-26T05:18:40;100530.41;;;-0.21;100.00
46836;BME280;32573;51.290;6.926;2023-02-26T05:21:09;100520.91;;;-0.22;100.00
46836;BME280;32573;51.290;6.926;2023-02-26T05:23:38;100531.06;;;-0.24;100.00
46836;BME280;32573;51.290;6.926;2023-02-26T05:26:08;100531.94;;;-0.23;100.00
46836;BME280;32573;51.290;6.926;2023-02-26T05:28:37;100538.78;;;-0.24;100.00
46836;BME280;32573;51.290;6.926;2023-02-26T05:31:06;100531.84;;;-0.25;100.00
46836;BME280;32573;51.290;6.926;2023-02-26T05:33:34;100535.97;;;-0.27;100.00
46836;BME280;32573;51.290;6.926;2023-02-26T05:36:03;100535.09;;;-0.27;100.00
46836;BME280;32573;51.290;6.926;2023-02-26T05:38:33;100538.31;;;-0.30;100.00
46836;BME280;32573;51.290;6.926;2023-02-26T05:41:02;100546.03;;;-0.30;100.00
46836;BME280;32573;51.290;6.926;2023-02-26T05:43:31;100537.28;;;-0.32;100.00
46836;BME280;32573;51.290;6.926;2023-02-26T05:46:00;100549.13;;;-0.34;100.00
46836;BME280;32573;51.290;6.926;2023-02-26T05:48:29;100554.28;;;-0.34;100.00
46836;BME280;32573;51.290;6.926;2023-02-26T05:50:58;100562.78;;;-0.35;100.00
46836;BME280;32573;51.290;6.926;2023-02-26T05:53:26;100557.38;;;-0.38;100.00
46836;BME280;32573;51.290;6.926;2023-02-26T05:55:55;100563.44;;;-0.37;100.00
46836;BME280;32573;51.290;6.926;2023-02-26T05:58:24;100571.03;;;-0.39;100.00
46836;BME280;32573;51.290;6.926;2023-02-26T06:00:57;100569.25;;;-0.40;100.00
46836;BME280;32573;51.290;6.926;2023-02-26T06:03:25;100572.44;;;-0.43;100.00
46836;BME280;32573;51.290;6.926;2023-02-26T06:05:54;100579.25;;;-0.43;100.00
46836;BME280;32573;51.290;6.926;2023-02-26T06:08:22;100580.81;;;-0.45;100.00
46836;BME280;32573;51.290;6.926;2023-02-26T06:10:51;100593.56;;;-0.47;100.00
46836;BME280;32573;51.290;6.926;2023-02-26T06:13:19;100590.84;;;-0.48;100.00
46836;BME280;32573;51.290;6.926;2023-02-26T06:15:48;100589.09;;;-0.49;100.00
46836;BME280;32573;51.290;6.926;2023-02-26T06:18:19;100607.06;;;-0.49;100.00
46836;BME280;32573;51.290;6.926;2023-02-26T06:20:48;100607.06;;;-0.49;100.00
46836;BME280;32573;51.290;6.926;2023-02-26T06:23:16;100600.91;;;-0.51;100.00
46836;BME280;32573;51.290;6.926;2023-02-26T06:25:45;100612.75;;;-0.53;100.00
46836;BME280;32573;51.290;6.926;2023-02-26T06:28:13;100621.34;;;-0.53;100.00
46836;BME280;32573;51.290;6.926;2023-02-26T06:30:42;100621.25;;;-0.54;100.00
46836;BME280;32573;51.290;6.926;2023-02-26T06:33:10;100632.28;;;-0.55;100.00
46836;BME280;32573;51.290;6.926;2023-02-26T06:35:40;100636.44;;;-0.57;100.00
46836;BME280;32573;51.290;6.926;2023-02-26T06:38:08;100634.59;;;-0.58;100.00
46836;BME280;32573;51.290;6.926;2023-02-26T06:40:37;100630.25;;;-0.59;100.00
46836;BME280;32573;51.290;6.926;2023-02-26T06:43:06;100634.38;;;-0.61;100.00
46836;BME280;32573;51.290;6.926;2023-02-26T06:45:34;100638.63;;;-0.62;100.00
46836;BME280;32573;51.290;6.926;2023-02-26T06:48:03;100642.84;;;-0.62;100.00
46836;BME280;32573;51.290;6.926;2023-02-26T06:50:31;100656.47;;;-0.63;100.00
46836;BME280;32573;51.290;6.926;2023-02-26T06:53:01;100651.34;;;-0.63;100.00
46836;BME280;32573;51.290;6.926;2023-02-26T06:55:30;100659.84;;;-0.64;100.00
46836;BME280;32573;51.290;6.926;2023-02-26T06:57:59;100658.91;;;-0.65;100.00
46836;BME280;32573;51.290;6.926;2023-02-26T07:00:27;100667.41;;;-0.66;100.00
46836;BME280;32573;51.290;6.926;2023-02-26T07:02:56;100671.66;;;-0.67;100.00
46836;BME280;32573;51.290;6.926;2023-02-26T07:05:24;100674.34;;;-0.65;100.00
46836;BME280;32573;51.290;6.926;2023-02-26T07:07:53;100678.59;;;-0.66;100.00
46836;BME280;32573;51.290;6.926;2023-02-26T07:10:23;100681.94;;;-0.67;100.00
46836;BME280;32573;51.290;6.926;2023-02-26T07:12:52;100694.13;;;-0.64;100.00
46836;BME280;32573;51.290;6.926;2023-02-26T07:15:20;100686.44;;;-0.64;100.00
46836;BME280;32573;51.290;6.926;2023-02-26T07:17:48;100687.31;;;-0.63;100.00
46836;BME280;32573;51.290;6.926;2023-02-26T07:20:17;100701.06;;;-0.63;100.00
46836;BME280;32573;51.290;6.926;2023-02-26T07:22:45;100709.66;;;-0.62;100.00
46836;BME280;32573;51.290;6.926;2023-02-26T07:25:14;100709.66;;;-0.62;100.00
46836;BME280;32573;51.290;6.926;2023-02-26T07:27:44;100710.69;;;-0.60;100.00
46836;BME280;32573;51.290;6.926;2023-02-26T07:30:13;100721.09;;;-0.59;100.00
46836;BME280;32573;51.290;6.926;2023-02-26T07:32:42;100726.38;;;-0.57;100.00
46836;BME280;32573;51.290;6.926;2023-02-26T07:35:11;100727.38;;;-0.55;100.00
46836;BME280;32573;51.290;6.926;2023-02-26T07:37:39;100725.09;;;-0.52;100.00
46836;BME280;32573;51.290;6.926;2023-02-26T07:40:09;100725.19;;;-0.51;100.00
46836;BME280;32573;51.290;6.926;2023-02-26T07:42:38;100728.78;;;-0.49;100.00
46836;BME280;32573;51.290;6.926;2023-02-26T07:45:08;100731.50;;;-0.47;100.00
46836;BME280;32573;51.290;6.926;2023-02-26T07:47:37;100731.72;;;-0.44;100.00
46836;BME280;32573;51.290;6.926;2023-02-26T07:50:06;100730.19;;;-0.42;100.00
46836;BME280;32573;51.290;6.926;2023-02-26T07:52:35;100729.41;;;-0.41;100.00
46836;BME280;32573;51.290;6.926;2023-02-26T07:55:04;100735.56;;;-0.39;100.00
46836;BME280;32573;51.290;6.926;2023-02-26T07:57:32;100749.44;;;-0.37;100.00
46836;BME280;32573;51.290;6.926;2023-02-26T08:00:01;100747.91;;;-0.35;100.00
46836;BME280;32573;51.290;6.926;2023-02-26T08:02:39;100756.75;;;-0.31;100.00
46836;BME280;32573;51.290;6.926;2023-02-26T08:05:08;100767.16;;;-0.30;100.00
46836;BME280;32573;51.290;6.926;2023-02-26T08:07:37;100765.59;;;-0.28;100.00
46836;BME280;32573;51.290;6.926;2023-02-26T08:10:07;100767.66;;;-0.24;100.00
46836;BME280;32573;51.290;6.926;2023-02-26T08:12:35;100766.09;;;-0.22;100.00
46836;BME280;32573;51.290;6.926;2023-02-26T08:15:05;100776.63;;;-0.18;100.00
46836;BME280;32573;51.290;6.926;2023-02-26T08:17:33;100773.41;;;-0.16;100.00
46836;BME280;32573;51.290;6.926;2023-02-26T08:20:04;100762.47;;;-0.13;100.00
46836;BME280;32573;51.290;6.926;2023-02-26T08:22:33;100762.69;;;-0.10;100.00
46836;BME280;32573;51.290;6.926;2023-02-26T08:25:02;100774.03;;;-0.08;100.00
46836;BME280;32573;51.290;6.926;2023-02-26T08:27:30;100770.94;;;-0.04;100.00
46836;BME280;32573;51.290;6.926;2023-02-26T08:29:59;100776.31;;;-0.01;100.00
46836;BME280;32573;51.290;6.926;2023-02-26T08:32:27;100782.72;;;0.04;100.00
46836;BME280;32573;51.290;6.926;2023-02-26T08:34:56;100793.25;;;0.07;100.00
46836;BME280;32573;51.290;6.926;2023-02-26T08:37:26;100798.66;;;0.10;100.00
46836;BME280;32573;51.290;6.926;2023-02-26T08:39:54;100805.81;;;0.14;100.00
46836;BME280;32573;51.290;6.926;2023-02-26T08:42:23;100801.94;;;0.19;100.00
46836;BME280;32573;51.290;6.926;2023-02-26T08:44:51;100810.69;;;0.21;100.00
46836;BME280;32573;51.290;6.926;2023-02-26T08:47:20;100816.34;;;0.28;100.00
46836;BME280;32573;51.290;6.926;2023-02-26T08:49:55;100818.59;;;0.35;100.00
46836;BME280;32573;51.290;6.926;2023-02-26T08:52:26;100820.50;;;0.37;100.00
46836;BME280;32573;51.290;6.926;2023-02-26T08:54:55;100818.31;;;0.42;100.00
46836;BME280;32573;51.290;6.926;2023-02-26T08:57:23;100834.00;;;0.45;100.00
46836;BME280;32573;51.290;6.926;2023-02-26T08:59:52;100835.28;;;0.50;100.00
46836;BME280;32573;51.290;6.926;2023-02-26T09:02:20;100832.13;;;0.54;100.00
46836;BME280;32573;51.290;6.926;2023-02-26T09:04:49;100842.00;;;0.60;100.00
46836;BME280;32573;51.290;6.926;2023-02-26T09:07:17;100850.09;;;0.64;100.00
46836;BME280;32573;51.290;6.926;2023-02-26T09:09:47;100851.25;;;0.68;100.00
46836;BME280;32573;51.290;6.926;2023-02-26T09:12:16;100854.22;;;0.73;100.00
46836;BME280;32573;51.290;6.926;2023-02-26T09:14:44;100855.47;;;0.78;100.00
46836;BME280;32573;51.290;6.926;2023-02-26T09:17:13;100860.97;;;0.82;100.00
46836;BME280;32573;51.290;6.926;2023-02-26T09:19:42;100857.97;;;0.88;100.00
46836;BME280;32573;51.290;6.926;2023-02-26T09:22:11;100854.81;;;0.92;100.00
46836;BME280;32573;51.290;6.926;2023-02-26T09:24:39;100857.91;;;0.98;100.00
46836;BME280;32573;51.290;6.926;2023-02-26T09:27:09;100864.31;;;1.03;100.00
46836;BME280;32573;51.290;6.926;2023-02-26T09:29:37;100861.28;;;1.09;100.00
46836;BME280;32573;51.290;6.926;2023-02-26T09:32:06;100860.75;;;1.13;100.00
46836;BME280;32573;51.290;6.926;2023-02-26T09:34:35;100860.31;;;1.19;100.00
46836;BME280;32573;51.290;6.926;2023-02-26T09:37:07;100877.03;;;1.24;100.00
46836;BME280;32573;51.290;6.926;2023-02-26T09:39:36;100873.91;;;1.28;100.00
46836;BME280;32573;51.290;6.926;2023-02-26T09:42:12;100876.19;;;1.35;100.00
46836;BME280;32573;51.290;6.926;2023-02-26T09:44:43;100880.22;;;1.43;100.00
46836;BME280;32573;51.290;6.926;2023-02-26T09:47:14;100884.28;;;1.51;100.00
46836;BME280;32573;51.290;6.926;2023-02-26T09:49:49;100886.53;;;1.59;100.00
46836;BME280;32573;51.290;6.926;2023-02-26T09:52:23;100885.44;;;1.67;100.00
46836;BME280;32573;51.290;6.926;2023-02-26T09:54:58;100895.44;;;1.74;100.00
46836;BME280;32573;51.290;6.926;2023-02-26T09:57:33;100895.09;;;1.81;100.00
46836;BME280;32573;51.290;6.926;2023-02-26T10:00:06;100897.34;;;1.88;100.00
46836;BME280;32573;51.290;6.926;2023-02-26T10:02:43;100898.94;;;1.98;100.00
46836;BME280;32573;51.290;6.926;2023-02-26T10:05:18;100907.47;;;2.09;100.00
46836;BME280;32573;51.290;6.926;2023-02-26T10:07:54;100904.69;;;2.18;100.00
46836;BME280;32573;51.290;6.926;2023-02-26T10:10:32;100908.03;;;2.28;100.00
46836;BME280;32573;51.290;6.926;2023-02-26T10:13:04;100902.75;;;2.38;100.00
46836;BME280;32573;51.290;6.926;2023-02-26T10:15:36;100905.19;;;2.49;100.00
46836;BME280;32573;51.290;6.926;2023-02-26T10:18:10;100911.03;;;2.58;100.00
46836;BME280;32573;51.290;6.926;2023-02-26T10:20:47;100913.28;;;2.65;100.00
46836;BME280;32573;51.290;6.926;2023-02-26T10:23:23;100911.91;;;2.70;100.00
46836;BME280;32573;51.290;6.926;2023-02-26T10:26:00;100918.31;;;2.75;100.00
46836;BME280;32573;51.290;6.926;2023-02-26T10:28:42;100921.91;;;2.77;100.00
46836;BME280;32573;51.290;6.926;2023-02-26T10:31:21;100917.50;;;2.76;100.00
46836;BME280;32573;51.290;6.926;2023-02-26T10:33:59;100921.78;;;2.76;100.00
46836;BME280;32573;51.290;6.926;2023-02-26T10:36:39;100922.88;;;2.79;100.00
46836;BME280;32573;51.290;6.926;2023-02-26T10:39:21;100922.13;;;2.80;100.00
46836;BME280;32573;51.290;6.926;2023-02-26T10:41:51;100921.91;;;2.77;100.00
46836;BME280;32573;51.290;6.926;2023-02-26T10:44:27;100927.75;;;2.75;100.00
46836;BME280;32573;51.290;6.926;2023-02-26T10:47:04;100922.88;;;2.79;100.00
46836;BME280;32573;51.290;6.926;2023-02-26T10:49:49;100943.00;;;2.84;100.00
46836;BME280;32573;51.290;6.926;2023-02-26T10:52:22;100938.63;;;2.83;100.00
46836;BME280;32573;51.290;6.926;2023-02-26T10:55:14;100945.59;;;2.84;100.00
46836;BME280;32573;51.290;6.926;2023-02-26T10:57:54;100942.88;;;2.82;100.00
46836;BME280;32573;51.290;6.926;2023-02-26T11:00:25;100949.75;;;2.81;100.00
46836;BME280;32573;51.290;6.926;2023-02-26T11:02:55;100955.72;;;2.80;100.00
46836;BME280;32573;51.290;6.926;2023-02-26T11:05:26;100954.47;;;2.87;100.00
46836;BME280;32573;51.290;6.926;2023-02-26T11:07:58;100952.75;;;2.99;100.00
46836;BME280;32573;51.290;6.926;2023-02-26T11:10:38;100953.72;;;3.13;100.00
46836;BME280;32573;51.290;6.926;2023-02-26T11:13:08;100945.34;;;3.29;100.00
46836;BME280;32573;51.290;6.926;2023-02-26T11:15:38;100948.91;;;3.43;100.00
46836;BME280;32573;51.290;6.926;2023-02-26T11:18:11;100955.94;;;3.57;100.00
46836;BME280;32573;51.290;6.926;2023-02-26T11:20:45;100949.97;;;3.72;100.00
46836;BME280;32573;51.290;6.926;2023-02-26T11:23:17;100944.03;;;3.86;100.00
46836;BME280;32573;51.290;6.926;2023-02-26T11:25:53;100946.47;;;3.96;100.00
46836;BME280;32573;51.290;6.926;2023-02-26T11:28:28;100941.19;;;4.08;100.00
46836;BME280;32573;51.290;6.926;2023-02-26T11:31:01;100942.72;;;4.18;100.00
46836;BME280;32573;51.290;6.926;2023-02-26T11:33:36;100954.97;;;4.33;100.00
46836;BME280;32573;51.290;6.926;2023-02-26T11:36:09;100945.41;;;4.46;100.00
46836;BME280;32573;51.290;6.926;2023-02-26T11:38:40;100945.91;;;4.53;100.00
46836;BME280;32573;51.290;6.926;2023-02-26T11:41:12;100949.69;;;4.59;100.00
46836;BME280;32573;51.290;6.926;2023-02-26T11:43:42;100937.91;;;4.64;100.00
46836;BME280;32573;51.290;6.926;2023-02-26T11:46:14;100942.31;;;4.65;100.00
46836;BME280;32573;51.290;6.926;2023-02-26T11:48:45;100946.69;;;4.66;100.00
46836;BME280;32573;51.290;6.926;2023-02-26T11:51:18;100951.38;;;4.71;100.00
46836;BME280;32573;51.290;6.926;2023-02-26T11:53:49;100951.66;;;4.76;100.00
46836;BME280;32573;51.290;6.926;2023-02-26T11:56:24;100951.38;;;4.71;100.00
46836;BME280;32573;51.290;6.926;2023-02-26T11:58:53;100953.00;;;4.69;100.00
46836;BME280;32573;51.290;6.926;2023-02-26T12:01:27;100949.47;;;4.69;100.00
46836;BME280;32573;51.290;6.926;2023-02-26T12:03:59;100952.00;;;4.67;100.00
46836;BME280;32573;51.290;6.926;2023-02-26T12:06:29;100954.78;;;4.70;100.00
46836;BME280;32573;51.290;6.926;2023-02-26T12:08:57;100949.69;;;4.72;100.00
46836;BME280;32573;51.290;6.926;2023-02-26T12:11:46;100948.00;;;4.72;100.00
46836;BME280;32573;51.290;6.926;2023-02-26T12:14:55;100955.84;;;4.74;100.00
46836;BME280;32573;51.290;6.926;2023-02-26T12:17:47;100944.50;;;4.72;100.00
46836;BME280;32573;51.290;6.926;2023-02-26T12:20:24;100944.50;;;4.72;100.00
46836;BME280;32573;51.290;6.926;2023-02-26T12:23:05;100946.66;;;4.79;100.00
46836;BME280;32573;51.290;6.926;2023-02-26T12:26:08;100949.06;;;4.89;100.00
46836;BME280;32573;51.290;6.926;2023-02-26T12:29:05;100941.84;;;4.98;100.00
46836;BME280;32573;51.290;6.926;2023-02-26T12:31:53;100943.25;;;5.07;100.00
46836;BME280;32573;51.290;6.926;2023-02-26T12:34:35;100951.56;;;5.16;100.00
46836;BME280;32573;51.290;6.926;2023-02-26T12:37:33;100956.34;;;5.23;100.00
46836;BME280;32573;51.290;6.926;2023-02-26T12:40:13;100951.34;;;5.26;100.00
46836;BME280;32573;51.290;6.926;2023-02-26T12:42:52;100942.06;;;5.30;100.00
46836;BME280;32573;51.290;6.926;2023-02-26T12:45:37;100945.91;;;5.36;100.00
46836;BME280;32573;51.290;6.926;2023-02-26T12:48:47;100952.69;;;5.48;100.00
46836;BME280;32573;51.290;6.926;2023-02-26T12:51:28;100960.09;;;5.56;100.00
46836;BME280;32573;51.290;6.926;2023-02-26T12:54:38;100955.59;;;5.67;100.00
46836;BME280;32573;51.290;6.926;2023-02-26T12:57:21;100946.25;;;5.71;100.00
46836;BME280;32573;51.290;6.926;2023-02-26T13:00:19;100949.84;;;5.73;100.00
46836;BME280;32573;51.290;6.926;2023-02-26T13:06:27;100944.69;;;5.88;100.00
46836;BME280;32573;51.290;6.926;2023-02-26T13:09:04;100948.81;;;5.99;100.00
46836;BME280;32573;51.290;6.926;2023-02-26T13:11:46;100954.41;;;6.05;100.00
46836;BME280;32573;51.290;6.926;2023-02-26T13:14:27;100954.75;;;6.11;100.00
46836;BME280;32573;51.290;6.926;2023-02-26T13:17:02;100959.31;;;6.15;100.00
46836;BME280;32573;51.290;6.926;2023-02-26T13:19:40;100945.78;;;6.21;100.00
46836;BME280;32573;51.290;6.926;2023-02-26T13:22:17;100942.00;;;6.31;100.00